Time;durP1;ratioP1;P1;durP2;ratioP2;P2;SDS_P1;SDS_P2;PMS_P1;PMS_P2;Temp;Humidity;BMP_temperature;BMP_pressure;BME280_temperature;BME280_humidity;BME280_pressure;Samples;Min_cycle;Max_cycle;Signal;HPM_P1;HPM_P2
2021/04/02 00:00:59;;;;;;;7.10;4.50;;;;;;;19.44;44.69;99584.44;2069877;28;20038;-64
2021/04/02 00:02:01;;;;;;;9.18;4.82;;;;;;;19.46;44.70;99589.75;2066836;28;20034;-64
2021/04/02 00:03:09;;;;;;;8.85;4.97;;;;;;;19.45;44.72;99577.09;2065628;28;20030;-63
2021/04/02 00:04:09;;;;;;;6.55;4.70;;;;;;;19.45;44.68;99582.56;2062334;28;20509;-64
2021/04/02 00:05:16;;;;;;;8.93;5.73;;;;;;;19.44;44.75;99587.19;2063735;28;20355;-63
2021/04/02 00:06:16;;;;;;;10.15;5.40;;;;;;;19.45;44.77;99590.75;2069268;28;20081;-64
2021/04/02 00:07:17;;;;;;;8.67;4.67;;;;;;;19.43;44.70;99585.47;2061970;28;20026;-64
2021/04/02 00:08:18;;;;;;;8.20;4.63;;;;;;;19.44;44.86;99592.66;2064049;28;20489;-64
2021/04/02 00:09:18;;;;;;;9.88;5.28;;;;;;;19.45;44.83;99593.50;2070217;28;20440;-64
2021/04/02 00:10:24;;;;;;;7.50;4.33;;;;;;;19.43;44.85;99585.47;2068845;28;20252;-64
2021/04/02 00:11:25;;;;;;;6.75;4.40;;;;;;;19.44;44.85;99587.19;2069448;28;20026;-64
2021/04/02 00:12:25;;;;;;;7.00;4.53;;;;;;;19.44;44.83;99586.34;2068842;28;20096;-64
2021/04/02 00:13:29;;;;;;;9.20;5.00;;;;;;;19.44;44.78;99575.41;2066612;28;20033;-64
2021/04/02 00:14:29;;;;;;;8.38;5.40;;;;;;;19.44;44.91;99575.41;2070317;28;20033;-64
2021/04/02 00:15:30;;;;;;;6.50;4.40;;;;;;;19.44;44.85;99581.72;2068898;28;20033;-64
2021/04/02 00:16:30;;;;;;;6.07;4.03;;;;;;;19.44;44.88;99580.88;2069578;28;20407;-64
2021/04/02 00:17:31;;;;;;;7.97;4.60;;;;;;;19.44;44.90;99578.13;2068374;28;20026;-63
2021/04/02 00:18:31;;;;;;;13.70;4.93;;;;;;;19.43;45.04;99579.16;2062786;28;20301;-64
2021/04/02 00:19:32;;;;;;;9.87;5.50;;;;;;;19.43;44.77;99579.16;2070156;28;20057;-64
2021/04/02 00:20:32;;;;;;;9.37;4.80;;;;;;;19.44;44.85;99575.41;2066711;28;20037;-64
2021/04/02 00:21:33;;;;;;;5.73;4.10;;;;;;;19.44;44.76;99575.41;2069735;28;20025;-64
2021/04/02 00:22:33;;;;;;;11.97;4.73;;;;;;;19.43;44.82;99570.97;2071910;28;20435;-64
2021/04/02 00:23:35;;;;;;;7.33;4.27;;;;;;;19.43;44.91;99576.44;2071589;28;20115;-64
2021/04/02 00:24:36;;;;;;;7.15;4.78;;;;;;;19.43;44.90;99565.50;2068990;28;20527;-64
2021/04/02 00:25:37;;;;;;;9.73;5.57;;;;;;;19.43;44.85;99573.69;2070856;28;20107;-64
2021/04/02 00:26:37;;;;;;;8.45;4.38;;;;;;;19.43;44.84;99579.16;2069624;28;20025;-64
2021/04/02 00:27:39;;;;;;;6.67;4.83;;;;;;;19.43;44.94;99579.16;2063694;28;20144;-63
2021/04/02 00:28:40;;;;;;;8.18;4.55;;;;;;;19.44;44.79;99572.66;2069655;28;20033;-64
2021/04/02 00:29:41;;;;;;;9.00;4.20;;;;;;;19.43;44.93;99568.22;2070860;28;20124;-63
2021/04/02 00:30:43;;;;;;;10.50;5.27;;;;;;;19.42;44.91;99566.50;2066320;28;20053;-63
2021/04/02 00:31:43;;;;;;;13.90;5.05;;;;;;;19.43;45.01;99570.97;2065440;28;20026;-63
2021/04/02 00:32:44;;;;;;;7.30;4.93;;;;;;;19.42;45.00;99563.78;2065909;28;20046;-63
2021/04/02 00:33:45;;;;;;;8.07;4.97;;;;;;;19.42;44.75;99566.50;2071501;28;20398;-63
2021/04/02 00:34:46;;;;;;;6.25;4.53;;;;;;;19.42;44.84;99567.34;2070658;28;20261;-63
2021/04/02 00:35:47;;;;;;;7.37;4.17;;;;;;;19.42;44.96;99570.09;2064734;28;20037;-63
2021/04/02 00:36:47;;;;;;;5.67;3.97;;;;;;;19.41;44.91;99564.81;2070634;28;20556;-64
2021/04/02 00:37:47;;;;;;;6.90;4.10;;;;;;;19.41;44.83;99562.91;2065506;28;20080;-64
2021/04/02 00:38:48;;;;;;;6.80;4.87;;;;;;;19.42;44.75;99558.31;2071434;28;20022;-63
2021/04/02 00:39:48;;;;;;;8.07;4.33;;;;;;;19.41;44.80;99559.34;2071227;28;20033;-63
2021/04/02 00:40:57;;;;;;;7.87;4.50;;;;;;;19.40;44.87;99558.50;2068127;28;20026;-64
2021/04/02 00:41:57;;;;;;;6.68;3.85;;;;;;;19.41;44.88;99559.34;2063214;28;20567;-64
2021/04/02 00:42:59;;;;;;;7.73;4.30;;;;;;;19.41;44.85;99553.88;2070051;28;20025;-64
2021/04/02 00:44:00;;;;;;;9.38;4.10;;;;;;;19.39;44.87;99548.56;2069591;28;20030;-64
2021/04/02 00:45:00;;;;;;;6.50;5.00;;;;;;;19.41;44.84;99551.13;2070047;28;20724;-64
2021/04/02 00:46:01;;;;;;;8.40;4.23;;;;;;;19.39;44.89;99554.03;2070332;28;20022;-63
2021/04/02 00:47:01;;;;;;;8.07;4.60;;;;;;;19.40;45.04;99557.59;2069749;28;20538;-63
2021/04/02 00:48:03;;;;;;;6.80;5.00;;;;;;;19.40;44.93;99546.66;2071053;28;20030;-64
2021/04/02 00:49:04;;;;;;;5.40;3.97;;;;;;;19.40;44.87;99560.34;2067599;28;20511;-63
2021/04/02 00:50:09;;;;;;;6.80;3.93;;;;;;;19.38;44.96;99560.53;2070558;28;20667;-63
2021/04/02 00:51:29;;;;;;;8.93;5.28;;;;;;;19.38;44.96;99548.75;2070696;28;20029;-63
2021/04/02 00:52:30;;;;;;;6.38;4.38;;;;;;;19.38;45.03;99559.69;2070399;28;20030;-64
2021/04/02 00:53:33;;;;;;;6.00;4.10;;;;;;;19.39;44.85;99544.97;2069932;28;20018;-63
2021/04/02 00:54:34;;;;;;;6.57;4.10;;;;;;;19.39;44.93;99551.28;2070835;28;20042;-63
2021/04/02 00:55:36;;;;;;;7.13;4.95;;;;;;;19.39;44.91;99555.91;2070866;28;20105;-63
2021/04/02 00:56:36;;;;;;;5.88;4.30;;;;;;;19.38;44.96;99548.75;2070874;28;20037;-63
2021/04/02 00:57:37;;;;;;;6.73;4.07;;;;;;;19.39;44.97;99550.44;2071610;28;20053;-63
2021/04/02 00:58:38;;;;;;;5.87;4.30;;;;;;;19.39;45.06;99550.44;2068314;28;20160;-63
2021/04/02 00:59:41;;;;;;;11.90;4.53;;;;;;;19.38;44.99;99549.59;2071184;28;20083;-63
2021/04/02 01:00:42;;;;;;;6.60;4.60;;;;;;;19.38;45.07;99546.84;2064581;28;20493;-64
2021/04/02 01:01:43;;;;;;;6.32;4.03;;;;;;;19.38;45.11;99544.13;2068253;28;20030;-63
2021/04/02 01:02:43;;;;;;;8.33;4.20;;;;;;;19.38;45.13;99544.13;2071378;28;20022;-63
2021/04/02 01:03:47;;;;;;;6.17;3.73;;;;;;;19.37;45.25;99542.41;2070124;28;20029;-63
2021/04/02 01:04:47;;;;;;;6.97;3.90;;;;;;;19.38;45.10;99543.28;2063644;28;20107;-63
2021/04/02 01:05:51;;;;;;;7.33;4.37;;;;;;;19.38;44.98;99535.06;2070309;28;20026;-63
2021/04/02 01:06:51;;;;;;;7.70;4.13;;;;;;;19.39;45.12;99544.97;2071212;28;20085;-63
2021/04/02 01:07:55;;;;;;;5.73;4.27;;;;;;;19.39;45.22;99534.03;2070939;28;20021;-63
2021/04/02 01:08:56;;;;;;;7.88;3.97;;;;;;;19.39;45.18;99528.56;2069276;28;20433;-63
2021/04/02 01:09:56;;;;;;;7.03;4.40;;;;;;;19.39;45.38;99540.34;2070356;28;20018;-63
2021/04/02 01:11:01;;;;;;;7.60;4.70;;;;;;;19.39;45.25;99537.63;2070059;28;20044;-63
2021/04/02 01:12:02;;;;;;;6.80;4.30;;;;;;;19.39;45.64;99529.41;2069372;28;20152;-63
2021/04/02 01:13:08;;;;;;;6.93;3.72;;;;;;;19.37;45.23;99530.63;2065542;28;20030;-64
2021/04/02 01:14:08;;;;;;;7.45;4.65;;;;;;;19.38;45.44;99533.19;2071077;28;20767;-64
2021/04/02 01:15:18;;;;;;;6.50;4.60;;;;;;;19.37;45.20;99530.63;2069959;28;20745;-63
2021/04/02 01:16:31;;;;;;;6.60;4.57;;;;;;;19.37;45.33;99533.34;2070108;28;20404;-63
2021/04/02 01:17:31;;;;;;;;;;;;;;;19.31;45.46;99526.69;2067417;28;20109;-63
2021/04/02 01:18:37;;;;;;;6.53;4.05;;;;;;;19.33;45.79;99531.97;2067515;28;20655;-63
2021/04/02 01:19:49;;;;;;;6.45;4.25;;;;;;;19.31;45.72;99532.13;2069404;28;20057;-63
2021/04/02 01:20:53;;;;;;;5.72;4.25;;;;;;;19.33;45.68;99529.22;2065183;28;20037;-63
2021/04/02 01:22:03;;;;;;;6.70;4.40;;;;;;;19.32;45.74;99527.53;2070557;28;20476;-63
2021/04/02 01:23:09;;;;;;;7.45;4.40;;;;;;;19.32;45.78;99528.38;2070471;28;20636;-63
2021/04/02 01:24:12;;;;;;;8.60;5.22;;;;;;;19.33;45.87;99531.97;2064195;28;20042;-63
2021/04/02 01:25:18;;;;;;;6.18;4.10;;;;;;;19.33;45.93;99529.22;2070961;28;20429;-63
2021/04/02 01:26:30;;;;;;;7.70;3.67;;;;;;;19.33;45.83;99529.22;2069779;28;20174;-63
2021/04/02 01:28:06;;;;;;;5.07;4.00;;;;;;;19.32;45.82;99527.53;2063655;28;20065;-63
2021/04/02 01:29:15;;;;;;;7.22;4.45;;;;;;;19.31;46.10;99520.34;2067987;28;20385;-63
2021/04/02 01:30:16;;;;;;;5.80;4.07;;;;;;;19.31;45.99;99520.34;2065304;28;20461;-63
2021/04/02 01:31:18;;;;;;;8.30;4.55;;;;;;;19.31;45.92;99514.91;2069472;28;20032;-63
2021/04/02 01:32:25;;;;;;;7.65;4.47;;;;;;;19.31;45.84;99520.34;2068706;28;20057;-63
2021/04/02 01:33:26;;;;;;;5.60;4.00;;;;;;;19.31;45.88;99523.94;2068404;28;20657;-63
2021/04/02 01:34:34;;;;;;;7.82;4.18;;;;;;;19.31;46.06;99517.63;2069151;28;20029;-64
2021/04/02 01:35:40;;;;;;;6.43;4.07;;;;;;;19.31;45.93;99514.91;2069371;28;20097;-63
2021/04/02 01:36:43;;;;;;;7.95;5.70;;;;;;;19.32;46.03;99519.31;2069569;28;20029;-63
2021/04/02 01:37:51;;;;;;;7.20;4.32;;;;;;;19.32;45.99;99522.06;2069795;28;20030;-64
2021/04/02 01:38:53;;;;;;;5.45;4.00;;;;;;;19.31;46.01;99515.75;2065731;28;20060;-63
2021/04/02 01:39:57;;;;;;;7.55;4.38;;;;;;;19.32;45.92;99519.31;2069900;28;20037;-63
2021/04/02 01:41:02;;;;;;;9.88;4.70;;;;;;;19.32;45.93;99517.44;2067962;28;20058;-64
2021/04/02 01:42:05;;;;;;;6.97;4.38;;;;;;;19.32;45.84;99517.44;2070812;28;20026;-64
2021/04/02 01:43:10;;;;;;;6.57;4.18;;;;;;;19.32;45.91;99509.25;2069005;28;20484;-63
2021/04/02 01:44:11;;;;;;;5.40;3.97;;;;;;;19.32;46.00;99511.13;2067756;28;20072;-63
2021/04/02 01:45:15;;;;;;;7.37;5.27;;;;;;;19.32;45.96;99516.59;2068851;28;20119;-63
2021/04/02 01:46:17;;;;;;;6.72;4.07;;;;;;;19.31;45.97;99515.75;2067314;28;20038;-63
2021/04/02 01:47:19;;;;;;;5.07;4.20;;;;;;;19.32;45.92;99513.84;2059132;28;20030;-63
2021/04/02 01:48:21;;;;;;;7.03;4.13;;;;;;;19.33;46.00;99507.34;2062146;28;20065;-63
2021/04/02 01:49:22;;;;;;;7.13;4.68;;;;;;;19.32;45.96;99511.97;2066969;28;20045;-63
2021/04/02 01:50:23;;;;;;;7.78;4.32;;;;;;;19.32;45.92;99508.41;2070378;28;20030;-63
2021/04/02 01:51:25;;;;;;;6.47;3.50;;;;;;;19.33;46.06;99501.88;2065870;28;20057;-63
2021/04/02 01:52:28;;;;;;;8.35;4.45;;;;;;;19.32;46.03;99505.66;2065354;28;20030;-63
2021/04/02 01:53:33;;;;;;;7.45;4.28;;;;;;;19.31;45.95;99506.69;2070076;28;20078;-63
2021/04/02 01:55:06;;;;;;;5.35;3.90;;;;;;;19.31;45.97;99506.69;2067793;28;20489;-63
2021/04/02 01:56:07;;;;;;;6.22;4.43;;;;;;;19.32;46.09;99505.66;2067410;28;20030;-64
2021/04/02 01:57:10;;;;;;;8.27;4.40;;;;;;;19.31;46.22;99509.44;2069764;28;20038;-63
2021/04/02 01:58:12;;;;;;;6.72;4.55;;;;;;;19.31;45.99;99507.53;2070195;28;20559;-63
2021/04/02 01:59:13;;;;;;;7.85;4.57;;;;;;;19.31;46.00;99510.28;2070446;28;20060;-63
2021/04/02 02:00:31;;;;;;;7.75;4.13;;;;;;;19.30;46.14;99502.22;2069226;28;20686;-63
2021/04/02 02:01:42;;;;;;;7.25;4.35;;;;;;;19.28;46.04;99511.47;2070704;28;20038;-63
2021/04/02 02:02:44;;;;;;;5.85;3.80;;;;;;;19.31;46.07;99498.50;2071063;28;20048;-63
2021/04/02 02:03:56;;;;;;;5.28;3.95;;;;;;;19.28;46.39;99500.53;2068742;28;20022;-64
2021/04/02 02:04:58;;;;;;;7.88;4.32;;;;;;;19.31;46.15;99503.97;2065592;28;20034;-63
2021/04/02 02:06:01;;;;;;;6.40;4.40;;;;;;;19.30;46.29;99499.50;2068570;28;20059;-63
2021/04/02 02:07:03;;;;;;;7.40;4.15;;;;;;;19.31;46.24;99509.44;2070442;28;20172;-63
2021/04/02 02:08:05;;;;;;;11.00;4.30;;;;;;;19.31;46.13;99506.69;2069156;28;20030;-63
2021/04/02 02:09:11;;;;;;;5.68;4.43;;;;;;;19.28;46.39;99508.72;2068978;28;20037;-63
2021/04/02 02:10:14;;;;;;;5.88;4.10;;;;;;;19.30;46.32;99502.22;2067525;28;20503;-63
2021/04/02 02:11:17;;;;;;;6.35;3.72;;;;;;;19.30;46.27;99504.97;2070134;28;20033;-63
2021/04/02 02:12:19;;;;;;;7.32;3.80;;;;;;;19.30;46.23;99502.22;2066766;28;20053;-63
2021/04/02 02:13:21;;;;;;;6.65;4.15;;;;;;;19.30;46.21;99511.28;2070674;28;20034;-63
2021/04/02 02:14:24;;;;;;;5.63;3.83;;;;;;;19.31;46.30;99509.44;2070057;28;20076;-63
2021/04/02 02:15:26;;;;;;;6.57;4.45;;;;;;;19.31;46.25;99503.97;2070223;28;20522;-63
2021/04/02 02:16:29;;;;;;;5.55;3.85;;;;;;;19.28;46.40;99502.41;2070119;28;20033;-63
2021/04/02 02:17:30;;;;;;;7.05;4.38;;;;;;;19.30;46.41;99507.69;2069126;28;20378;-63
2021/04/02 02:18:31;;;;;;;5.05;3.70;;;;;;;19.30;46.38;99507.69;2070097;28;20445;-64
2021/04/02 02:19:34;;;;;;;5.97;4.00;;;;;;;19.28;46.23;99508.72;2067214;28;20056;-63
2021/04/02 02:20:39;;;;;;;7.40;4.47;;;;;;;19.28;46.32;99505.16;2068384;28;20042;-63
2021/04/02 02:21:49;;;;;;;7.32;4.10;;;;;;;19.27;46.41;99509.72;2069666;28;20096;-63
2021/04/02 02:22:53;;;;;;;5.20;3.83;;;;;;;19.26;46.30;99499.84;2069462;28;20120;-63
2021/04/02 02:23:55;;;;;;;5.05;3.50;;;;;;;19.27;46.34;99509.72;2070625;28;20081;-63
2021/04/02 02:24:56;;;;;;;5.78;3.90;;;;;;;19.30;46.50;99502.22;2065661;28;20030;-64
2021/04/02 02:25:57;;;;;;;6.50;3.93;;;;;;;19.28;46.27;99499.69;2065444;28;20072;-63
2021/04/02 02:26:58;;;;;;;14.63;4.20;;;;;;;19.28;46.28;99494.22;2069234;28;20273;-63
2021/04/02 02:27:58;;;;;;;6.05;4.22;;;;;;;19.28;46.31;99495.06;2068204;28;20492;-63
2021/04/02 02:28:59;;;;;;;5.27;3.90;;;;;;;19.28;46.41;99489.59;2064351;28;20405;-64
2021/04/02 02:29:59;;;;;;;6.63;4.07;;;;;;;19.26;46.32;99494.38;2070323;28;20156;-63
2021/04/02 02:31:00;;;;;;;7.17;4.17;;;;;;;19.26;46.28;99486.19;2070622;28;20034;-63
2021/04/02 02:32:01;;;;;;;6.40;3.70;;;;;;;19.28;46.29;99499.69;2064445;28;20101;-63
2021/04/02 02:33:02;;;;;;;7.25;3.75;;;;;;;19.27;46.40;99493.34;2065447;28;20034;-64
2021/04/02 02:34:04;;;;;;;7.70;4.87;;;;;;;19.28;46.29;99488.75;2065827;28;20042;-63
2021/04/02 02:35:07;;;;;;;6.35;3.80;;;;;;;19.27;46.24;99487.88;2067760;28;20053;-63
2021/04/02 02:36:07;;;;;;;6.72;3.97;;;;;;;19.28;46.38;99491.50;2063688;28;20026;-63
2021/04/02 02:37:08;;;;;;;6.03;3.93;;;;;;;19.27;46.33;99493.34;2067779;28;20029;-63
2021/04/02 02:38:09;;;;;;;7.83;3.90;;;;;;;19.27;46.26;99493.34;2067861;28;20106;-63
2021/04/02 02:39:12;;;;;;;7.15;4.70;;;;;;;19.27;46.25;99490.59;2067777;28;20041;-63
2021/04/02 02:40:23;;;;;;;9.82;4.03;;;;;;;19.30;46.32;99491.31;2064814;28;20040;-63
2021/04/02 02:41:28;;;;;;;6.47;3.88;;;;;;;19.28;46.27;99486.03;2064758;28;20021;-63
2021/04/02 02:42:48;;;;;;;4.90;4.15;;;;;;;19.30;46.01;99492.16;2062258;28;20042;-63
2021/04/02 02:43:49;;;;;;;7.97;3.80;;;;;;;19.32;46.28;99486.53;2064280;28;20101;-63
2021/04/02 02:44:50;;;;;;;5.93;3.87;;;;;;;19.28;46.15;99488.75;2062851;28;20079;-63
2021/04/02 02:45:50;;;;;;;7.00;4.10;;;;;;;19.26;46.08;99477.97;2062327;28;20030;-63
2021/04/02 02:46:51;;;;;;;6.03;3.97;;;;;;;19.26;46.12;99480.72;2064052;28;20044;-63
2021/04/02 02:47:51;;;;;;;6.40;4.03;;;;;;;19.26;46.24;99474.41;2064811;28;20071;-63
2021/04/02 02:48:56;;;;;;;5.77;4.30;;;;;;;19.25;46.11;99481.72;2062018;28;20025;-63
2021/04/02 02:49:58;;;;;;;8.95;3.88;;;;;;;19.25;46.11;99481.72;2058987;28;20018;-63
2021/04/02 02:50:59;;;;;;;6.65;3.67;;;;;;;19.24;46.19;99477.28;2063961;28;20432;-63
2021/04/02 02:52:01;;;;;;;8.38;3.90;;;;;;;19.23;46.27;99481.06;2064345;28;20076;-63
2021/04/02 02:53:03;;;;;;;4.57;3.47;;;;;;;19.22;46.45;99479.31;2062342;28;20443;-63
2021/04/02 02:54:08;;;;;;;8.73;3.90;;;;;;;19.23;46.46;99480.16;2066543;28;20092;-64
2021/04/02 02:55:11;;;;;;;5.53;3.53;;;;;;;19.23;46.48;99481.06;2067275;28;20042;-64
2021/04/02 02:56:14;;;;;;;5.07;3.30;;;;;;;19.27;46.03;99476.94;2062588;28;20551;-65
2021/04/02 02:57:17;;;;;;;6.82;4.20;;;;;;;19.27;46.10;99487.03;2063352;28;20085;-65
2021/04/02 02:58:22;;;;;;;4.22;3.10;;;;;;;19.27;46.08;99485.13;2061700;28;20038;-65
2021/04/02 02:59:24;;;;;;;5.95;3.85;;;;;;;19.32;46.00;99486.53;2070044;28;20083;-65
2021/04/02 03:00:28;;;;;;;5.72;3.97;;;;;;;19.32;45.88;99481.06;2066989;28;20036;-64
2021/04/02 03:01:32;;;;;;;8.88;4.18;;;;;;;19.32;46.06;99483.78;2069885;28;20022;-65
2021/04/02 03:02:33;;;;;;;7.25;4.07;;;;;;;19.32;45.91;99483.78;2069551;28;20413;-65
2021/04/02 03:03:34;;;;;;;9.50;4.27;;;;;;;19.31;45.85;99482.09;2066344;28;20026;-65
2021/04/02 03:04:35;;;;;;;6.45;3.42;;;;;;;19.32;45.81;99483.78;2070486;28;20400;-64
2021/04/02 03:05:36;;;;;;;9.63;3.55;;;;;;;19.31;46.04;99482.94;2064836;28;20037;-65
2021/04/02 03:06:42;;;;;;;4.97;3.60;;;;;;;19.32;45.93;99472.88;2062402;28;20521;-65
2021/04/02 03:07:44;;;;;;;6.20;3.70;;;;;;;19.33;45.93;99475.44;2067557;28;20463;-65
2021/04/02 03:08:48;;;;;;;7.47;4.13;;;;;;;19.33;46.01;99474.56;2064632;28;20030;-65
2021/04/02 03:09:50;;;;;;;5.90;3.63;;;;;;;19.33;45.91;99474.56;2067241;28;20025;-65
2021/04/02 03:10:50;;;;;;;;;;;;;;;19.27;46.13;99466.00;2070848;28;20033;-65
2021/04/02 03:11:51;;;;;;;5.57;3.10;;;;;;;19.30;46.25;99473.03;2070317;28;19914;-65
2021/04/02 03:12:54;;;;;;;6.17;4.03;;;;;;;19.30;46.40;99470.28;2068307;28;20112;-65
2021/04/02 03:13:56;;;;;;;9.13;4.03;;;;;;;19.31;46.35;99471.16;2067708;28;20021;-64
2021/04/02 03:14:57;;;;;;;;;;;;;;;19.26;46.43;99467.06;2067603;28;20029;-65
2021/04/02 03:15:59;;;;;;;4.93;3.40;;;;;;;19.30;46.49;99469.44;2066537;28;20005;-65
2021/04/02 03:17:02;;;;;;;7.88;3.50;;;;;;;19.30;46.43;99470.28;2069575;28;20038;-65
2021/04/02 03:18:08;;;;;;;5.18;3.40;;;;;;;19.30;46.63;99473.03;2068905;28;20469;-64
2021/04/02 03:19:11;;;;;;;6.90;3.97;;;;;;;19.30;46.42;99474.91;2069433;28;20173;-64
2021/04/02 03:20:12;;;;;;;6.07;4.03;;;;;;;19.32;46.62;99467.41;2067684;28;20217;-64
2021/04/02 03:21:14;;;;;;;5.63;3.72;;;;;;;19.32;46.57;99470.13;2066933;28;20091;-65
2021/04/02 03:22:16;;;;;;;5.20;3.55;;;;;;;19.31;46.32;99473.91;2063612;28;20038;-65
2021/04/02 03:23:18;;;;;;;6.82;4.13;;;;;;;19.31;46.42;99472.03;2068637;28;20773;-65
2021/04/02 03:24:19;;;;;;;6.90;3.97;;;;;;;19.31;46.60;99465.69;2068240;28;20033;-65
2021/04/02 03:25:23;;;;;;;7.05;4.20;;;;;;;19.32;46.61;99472.88;2070277;28;20065;-65
2021/04/02 03:26:24;;;;;;;5.05;3.45;;;;;;;19.32;46.69;99472.88;2069226;28;20113;-65
2021/04/02 03:27:26;;;;;;;5.93;3.72;;;;;;;19.31;46.65;99474.75;2069574;28;20100;-65
2021/04/02 03:28:27;;;;;;;7.03;4.28;;;;;;;19.33;46.72;99474.56;2069295;28;20033;-65
2021/04/02 03:29:28;;;;;;;4.93;3.13;;;;;;;19.32;46.74;99468.25;2069906;28;20083;-65
2021/04/02 03:30:29;;;;;;;7.60;4.20;;;;;;;19.33;46.88;99474.56;2069559;28;20607;-66
2021/04/02 03:31:35;;;;;;;6.40;3.55;;;;;;;19.32;46.80;99476.44;2068895;28;20029;-65
2021/04/02 03:32:39;;;;;;;5.20;3.50;;;;;;;19.32;46.67;99483.78;2070186;28;20805;-65
2021/04/02 03:33:44;;;;;;;6.70;3.45;;;;;;;19.32;46.96;99473.72;2070318;28;20066;-65
2021/04/02 03:34:46;;;;;;;10.15;3.60;;;;;;;19.32;46.81;99472.88;2068435;28;20048;-65
2021/04/02 03:35:47;;;;;;;5.45;3.42;;;;;;;19.32;46.86;99475.59;2063350;28;20388;-66
2021/04/02 03:36:52;;;;;;;6.82;3.15;;;;;;;19.31;46.86;99476.63;2069659;28;20185;-65
2021/04/02 03:37:54;;;;;;;5.72;3.50;;;;;;;19.32;46.91;99467.41;2069973;28;20072;-65
2021/04/02 03:38:56;;;;;;;;;;;;;;;19.24;46.94;99470.97;2070009;28;20076;-65
2021/04/02 03:39:57;;;;;;;6.18;3.38;;;;;;;19.26;47.08;99469.78;2068789;28;19914;-66
2021/04/02 03:41:01;;;;;;;7.82;3.50;;;;;;;19.27;47.09;99460.53;2069897;28;20014;-65
2021/04/02 03:42:03;;;;;;;4.28;3.38;;;;;;;19.27;47.08;99466.00;2070159;28;20040;-66
2021/04/02 03:43:05;;;;;;;7.55;3.85;;;;;;;19.27;47.02;99460.53;2069040;28;20029;-65
2021/04/02 03:44:07;;;;;;;5.70;4.18;;;;;;;19.28;46.91;99462.28;2069368;28;20026;-65
2021/04/02 03:45:10;;;;;;;;;;;;;;;19.23;47.08;99461.94;2070018;28;20021;-65
2021/04/02 03:46:12;;;;;;;5.00;2.92;;;;;;;19.24;46.99;99458.16;2070170;28;19959;-65
2021/04/02 03:47:18;;;;;;;;;;;;;;;19.21;47.22;99465.84;2070457;28;20033;-66
2021/04/02 03:48:20;;;;;;;5.60;3.38;;;;;;;19.23;47.13;99474.72;2070059;28;19985;-66
2021/04/02 03:49:28;;;;;;;5.97;3.60;;;;;;;19.24;47.16;99470.97;2068874;28;20080;-65
2021/04/02 03:50:35;;;;;;;4.38;3.13;;;;;;;19.24;47.15;99460.88;2062667;28;20504;-66
2021/04/02 03:51:39;;;;;;;7.07;3.42;;;;;;;19.25;47.12;99468.06;2068421;28;20022;-66
2021/04/02 03:52:45;;;;;;;5.30;3.35;;;;;;;19.26;47.09;99474.41;2068183;28;20030;-66
2021/04/02 03:53:57;;;;;;;4.90;3.58;;;;;;;19.26;47.17;99469.78;2070252;28;20454;-66
2021/04/02 03:55:00;;;;;;;6.28;3.30;;;;;;;19.26;46.98;99461.59;2066997;28;20048;-66
2021/04/02 03:56:03;;;;;;;7.88;3.83;;;;;;;19.26;47.03;99466.19;2062937;28;20041;-66
2021/04/02 03:57:06;;;;;;;4.90;3.20;;;;;;;19.26;47.07;99464.31;2069715;28;20171;-66
2021/04/02 03:58:10;;;;;;;4.68;3.53;;;;;;;19.30;47.05;99458.50;2063929;28;20042;-66
2021/04/02 03:59:13;;;;;;;6.22;3.63;;;;;;;19.28;47.02;99458.69;2064384;28;20337;-66
2021/04/02 04:00:29;;;;;;;6.68;3.40;;;;;;;19.27;46.90;99460.53;2064190;28;20809;-66
2021/04/02 04:01:32;;;;;;;6.55;3.38;;;;;;;19.28;47.12;99459.53;2070708;28;20675;-65
2021/04/02 04:02:34;;;;;;;6.50;3.42;;;;;;;19.28;47.16;99453.22;2070752;28;20021;-65
2021/04/02 04:03:38;;;;;;;3.78;3.03;;;;;;;19.30;47.04;99462.09;2069089;28;20026;-65
2021/04/02 04:04:40;;;;;;;6.68;3.90;;;;;;;19.31;46.95;99465.69;2071852;28;20630;-65
2021/04/02 04:05:42;;;;;;;5.10;3.78;;;;;;;19.30;47.12;99458.50;2069354;28;20033;-65
2021/04/02 04:06:43;;;;;;;;;;;;;;;19.25;47.18;99462.59;2072023;28;20018;-65
2021/04/02 04:07:46;;;;;;;7.30;3.38;;;;;;;19.27;47.11;99459.69;2071020;28;19949;-65
2021/04/02 04:08:54;;;;;;;6.30;3.90;;;;;;;19.27;47.15;99460.53;2068250;28;20033;-65
2021/04/02 04:09:55;;;;;;;6.05;3.50;;;;;;;19.30;47.20;99458.50;2070114;28;20449;-65
2021/04/02 04:10:58;;;;;;;5.07;3.70;;;;;;;19.30;47.08;99458.50;2068723;28;20029;-65
2021/04/02 04:12:02;;;;;;;6.65;3.45;;;;;;;19.30;47.28;99463.97;2070985;28;20026;-65
2021/04/02 04:13:04;;;;;;;8.18;3.85;;;;;;;19.32;47.08;99464.66;2071010;28;20121;-65
2021/04/02 04:14:07;;;;;;;6.25;3.30;;;;;;;19.31;47.00;99465.69;2068446;28;20033;-65
2021/04/02 04:15:12;;;;;;;6.00;3.65;;;;;;;19.31;46.95;99465.69;2071268;28;20026;-64
2021/04/02 04:16:19;;;;;;;5.45;3.28;;;;;;;19.31;46.99;99465.69;2069578;28;20105;-65
2021/04/02 04:17:21;;;;;;;7.90;3.25;;;;;;;19.33;47.04;99455.44;2071414;28;20041;-65
2021/04/02 04:18:22;;;;;;;4.53;3.30;;;;;;;19.32;46.94;99462.78;2070321;28;20033;-65
2021/04/02 04:19:24;;;;;;;5.22;3.40;;;;;;;19.32;47.12;99462.78;2070683;28;20045;-65
2021/04/02 04:20:26;;;;;;;;;;;;;;;19.26;47.18;99464.31;2069267;28;20030;-65
2021/04/02 04:21:32;;;;;;;6.25;3.63;;;;;;;19.27;47.02;99465.16;2067721;28;19913;-65
2021/04/02 04:22:35;;;;;;;5.38;3.40;;;;;;;19.28;47.05;99466.91;2065563;28;20030;-65
2021/04/02 04:23:38;;;;;;;4.35;3.25;;;;;;;19.28;46.99;99466.91;2069676;28;20086;-66
2021/04/02 04:24:43;;;;;;;4.97;3.10;;;;;;;19.30;47.13;99467.56;2069276;28;20024;-65
2021/04/02 04:25:45;;;;;;;4.57;3.42;;;;;;;19.30;46.88;99459.34;2071338;28;20114;-65
2021/04/02 04:26:47;;;;;;;5.57;3.50;;;;;;;19.31;47.00;99461.09;2070550;28;20489;-66
2021/04/02 04:27:49;;;;;;;3.65;2.85;;;;;;;19.31;47.05;99466.56;2069899;28;20391;-66
2021/04/02 04:28:52;;;;;;;5.70;3.45;;;;;;;19.31;47.00;99465.69;2070581;28;20025;-66
2021/04/02 04:29:54;;;;;;;4.88;3.17;;;;;;;19.30;46.88;99461.25;2071143;28;20785;-66
2021/04/02 04:31:02;;;;;;;4.65;3.00;;;;;;;19.31;46.97;99466.56;2070442;28;20057;-66
2021/04/02 04:32:05;;;;;;;8.48;3.72;;;;;;;19.31;46.88;99462.97;2071449;28;20109;-66
2021/04/02 04:33:07;;;;;;;8.30;3.58;;;;;;;19.31;46.90;99460.25;2065671;28;20492;-65
2021/04/02 04:34:08;;;;;;;4.38;3.10;;;;;;;19.32;46.83;99464.66;2070652;28;20022;-65
2021/04/02 04:35:11;;;;;;;5.47;3.00;;;;;;;19.30;46.83;99456.63;2070374;28;20030;-66
2021/04/02 04:36:13;;;;;;;4.32;3.13;;;;;;;19.31;46.94;99460.25;2069097;28;20273;-66
2021/04/02 04:37:16;;;;;;;5.85;3.65;;;;;;;19.30;46.86;99453.03;2067509;28;20521;-66
2021/04/02 04:38:18;;;;;;;4.38;3.03;;;;;;;19.31;46.91;99457.50;2066754;28;20103;-66
2021/04/02 04:39:20;;;;;;;4.65;3.63;;;;;;;19.31;46.97;99452.03;2069559;28;20064;-65
2021/04/02 04:40:24;;;;;;;5.97;3.45;;;;;;;19.30;46.97;99459.34;2070605;28;20054;-66
2021/04/02 04:41:26;;;;;;;4.20;3.38;;;;;;;19.31;46.99;99460.25;2063886;28;20026;-65
2021/04/02 04:42:27;;;;;;;;;;;;;;;19.24;47.05;99455.44;2070610;28;20722;-65
2021/04/02 04:43:30;;;;;;;4.10;3.30;;;;;;;19.25;46.92;99457.13;2071050;28;20307;-66
2021/04/02 04:44:32;;;;;;;5.00;3.42;;;;;;;19.27;47.00;99455.09;2067751;28;20040;-66
2021/04/02 04:45:33;;;;;;;4.95;3.00;;;;;;;19.28;47.14;99459.53;2069917;28;20766;-65
2021/04/02 04:46:34;;;;;;;5.20;3.55;;;;;;;19.31;47.05;99457.50;2066957;28;20067;-65
2021/04/02 04:47:36;;;;;;;4.10;3.30;;;;;;;19.28;47.08;99454.09;2072305;28;20132;-65
2021/04/02 04:48:37;;;;;;;5.00;3.35;;;;;;;19.30;47.03;99458.50;2071194;28;20706;-65
2021/04/02 04:49:37;;;;;;;4.73;3.40;;;;;;;19.30;47.13;99458.50;2069807;28;20022;-65
2021/04/02 04:50:38;;;;;;;4.80;3.37;;;;;;;19.30;47.05;99456.63;2065657;28;20029;-65
2021/04/02 04:51:40;;;;;;;3.83;3.13;;;;;;;19.30;47.11;99458.50;2068635;28;20030;-65
2021/04/02 04:52:52;;;;;;;4.30;3.20;;;;;;;19.27;47.02;99457.81;2065971;28;20087;-65
2021/04/02 04:53:55;;;;;;;4.47;3.00;;;;;;;19.28;47.05;99453.22;2068862;28;20053;-65
2021/04/02 04:54:58;;;;;;;4.80;3.33;;;;;;;19.28;47.08;99450.50;2067273;28;20395;-65
2021/04/02 04:56:02;;;;;;;4.05;3.28;;;;;;;19.28;46.98;99445.88;2068639;28;20688;-65
2021/04/02 04:57:04;;;;;;;4.53;3.35;;;;;;;19.30;47.05;99453.03;2070014;28;20021;-65
2021/04/02 04:58:09;;;;;;;4.32;2.90;;;;;;;19.28;47.21;99450.50;2063453;28;20100;-65